sensor_id;sensor_type;location;lat;lon;timestamp;P1;durP1;ratioP1;P2;durP2;ratioP2
12892;SDS011;6514;48.606;9.222;2024-01-30T00:00:30;6.53;;;5.50;;
12892;SDS011;6514;48.606;9.222;2024-01-30T00:02:57;9.50;;;5.50;;
12892;SDS011;6514;48.606;9.222;2024-01-30T00:05:24;7.83;;;5.40;;
12892;SDS011;6514;48.606;9.222;2024-01-30T00:07:50;8.90;;;5.83;;
12892;SDS011;6514;48.606;9.222;2024-01-30T00:10:19;9.00;;;5.77;;
12892;SDS011;6514;48.606;9.222;2024-01-30T00:12:46;7.93;;;5.20;;
12892;SDS011;6514;48.606;9.222;2024-01-30T00:15:13;9.07;;;5.50;;
12892;SDS011;6514;48.606;9.222;2024-01-30T00:17:40;8.43;;;5.77;;
12892;SDS011;6514;48.606;9.222;2024-01-30T00:20:08;7.07;;;5.57;;
12892;SDS011;6514;48.606;9.222;2024-01-30T00:22:35;7.90;;;5.27;;
12892;SDS011;6514;48.606;9.222;2024-01-30T00:25:02;8.50;;;5.57;;
12892;SDS011;6514;48.606;9.222;2024-01-30T00:27:31;8.30;;;5.70;;
12892;SDS011;6514;48.606;9.222;2024-01-30T00:29:58;8.30;;;6.23;;
12892;SDS011;6514;48.606;9.222;2024-01-30T00:32:25;8.50;;;6.20;;
12892;SDS011;6514;48.606;9.222;2024-01-30T00:34:52;9.20;;;6.17;;
12892;SDS011;6514;48.606;9.222;2024-01-30T00:37:19;9.47;;;5.77;;
12892;SDS011;6514;48.606;9.222;2024-01-30T00:39:47;7.90;;;6.27;;
12892;SDS011;6514;48.606;9.222;2024-01-30T00:42:14;8.07;;;5.50;;
12892;SDS011;6514;48.606;9.222;2024-01-30T00:44:42;6.50;;;5.10;;
12892;SDS011;6514;48.606;9.222;2024-01-30T00:47:09;8.40;;;5.70;;
12892;SDS011;6514;48.606;9.222;2024-01-30T00:49:36;8.00;;;5.87;;
12892;SDS011;6514;48.606;9.222;2024-01-30T00:52:04;8.33;;;5.30;;
12892;SDS011;6514;48.606;9.222;2024-01-30T00:54:31;8.10;;;5.83;;
12892;SDS011;6514;48.606;9.222;2024-01-30T00:56:58;8.17;;;5.63;;
12892;SDS011;6514;48.606;9.222;2024-01-30T00:59:25;7.17;;;5.80;;
12892;SDS011;6514;48.606;9.222;2024-01-30T01:01:54;6.80;;;5.13;;
12892;SDS011;6514;48.606;9.222;2024-01-30T01:04:21;6.20;;;5.03;;
12892;SDS011;6514;48.606;9.222;2024-01-30T01:06:48;7.20;;;5.00;;
12892;SDS011;6514;48.606;9.222;2024-01-30T01:09:15;10.20;;;6.33;;
12892;SDS011;6514;48.606;9.222;2024-01-30T01:11:42;7.83;;;5.60;;
12892;SDS011;6514;48.606;9.222;2024-01-30T01:14:09;7.67;;;5.33;;
12892;SDS011;6514;48.606;9.222;2024-01-30T01:16:37;9.33;;;6.43;;
12892;SDS011;6514;48.606;9.222;2024-01-30T01:19:05;7.40;;;5.43;;
12892;SDS011;6514;48.606;9.222;2024-01-30T01:21:32;8.33;;;5.77;;
12892;SDS011;6514;48.606;9.222;2024-01-30T01:24:00;9.73;;;5.93;;
12892;SDS011;6514;48.606;9.222;2024-01-30T01:26:27;10.03;;;6.33;;
12892;SDS011;6514;48.606;9.222;2024-01-30T01:28:54;9.20;;;6.10;;
12892;SDS011;6514;48.606;9.222;2024-01-30T01:31:21;9.63;;;6.10;;
12892;SDS011;6514;48.606;9.222;2024-01-30T01:33:52;8.77;;;6.13;;
12892;SDS011;6514;48.606;9.222;2024-01-30T01:36:21;6.90;;;6.17;;
12892;SDS011;6514;48.606;9.222;2024-01-30T01:38:51;8.30;;;5.77;;
12892;SDS011;6514;48.606;9.222;2024-01-30T01:41:18;7.80;;;5.53;;
12892;SDS011;6514;48.606;9.222;2024-01-30T01:43:45;8.87;;;6.20;;
12892;SDS011;6514;48.606;9.222;2024-01-30T01:46:12;9.20;;;6.63;;
12892;SDS011;6514;48.606;9.222;2024-01-30T01:48:41;10.37;;;6.27;;
12892;SDS011;6514;48.606;9.222;2024-01-30T01:51:09;9.67;;;6.67;;
12892;SDS011;6514;48.606;9.222;2024-01-30T01:53:38;8.13;;;6.60;;
12892;SDS011;6514;48.606;9.222;2024-01-30T01:56:06;8.10;;;6.63;;
12892;SDS011;6514;48.606;9.222;2024-01-30T01:58:33;9.03;;;7.13;;
12892;SDS011;6514;48.606;9.222;2024-01-30T02:01:00;9.83;;;6.93;;
12892;SDS011;6514;48.606;9.222;2024-01-30T02:03:28;9.17;;;6.67;;
12892;SDS011;6514;48.606;9.222;2024-01-30T02:05:57;10.17;;;7.20;;
12892;SDS011;6514;48.606;9.222;2024-01-30T02:08:24;10.03;;;6.73;;
12892;SDS011;6514;48.606;9.222;2024-01-30T02:10:53;9.73;;;6.90;;
12892;SDS011;6514;48.606;9.222;2024-01-30T02:13:22;9.27;;;7.07;;
12892;SDS011;6514;48.606;9.222;2024-01-30T02:15:49;9.23;;;7.10;;
12892;SDS011;6514;48.606;9.222;2024-01-30T02:18:32;8.53;;;7.10;;
12892;SDS011;6514;48.606;9.222;2024-01-30T02:20:59;9.00;;;6.77;;
12892;SDS011;6514;48.606;9.222;2024-01-30T02:23:29;10.97;;;7.20;;
12892;SDS011;6514;48.606;9.222;2024-01-30T02:25:57;9.50;;;7.23;;
12892;SDS011;6514;48.606;9.222;2024-01-30T02:28:24;11.33;;;7.13;;
12892;SDS011;6514;48.606;9.222;2024-01-30T02:30:52;8.73;;;7.20;;
12892;SDS011;6514;48.606;9.222;2024-01-30T02:33:19;9.53;;;7.40;;
12892;SDS011;6514;48.606;9.222;2024-01-30T02:35:47;10.97;;;7.57;;
12892;SDS011;6514;48.606;9.222;2024-01-30T02:38:15;9.07;;;7.10;;
12892;SDS011;6514;48.606;9.222;2024-01-30T02:40:43;10.03;;;7.10;;
12892;SDS011;6514;48.606;9.222;2024-01-30T02:43:10;11.00;;;7.00;;
12892;SDS011;6514;48.606;9.222;2024-01-30T02:45:38;10.23;;;6.53;;
12892;SDS011;6514;48.606;9.222;2024-01-30T02:48:05;9.63;;;7.13;;
12892;SDS011;6514;48.606;9.222;2024-01-30T02:50:32;9.13;;;6.77;;
12892;SDS011;6514;48.606;9.222;2024-01-30T02:52:59;10.63;;;7.57;;
12892;SDS011;6514;48.606;9.222;2024-01-30T02:55:26;10.63;;;7.20;;
12892;SDS011;6514;48.606;9.222;2024-01-30T02:57:55;9.13;;;6.73;;
12892;SDS011;6514;48.606;9.222;2024-01-30T03:00:23;8.83;;;6.97;;
12892;SDS011;6514;48.606;9.222;2024-01-30T03:02:50;9.23;;;6.97;;
12892;SDS011;6514;48.606;9.222;2024-01-30T03:05:18;9.07;;;6.87;;
12892;SDS011;6514;48.606;9.222;2024-01-30T03:07:45;10.50;;;6.73;;
12892;SDS011;6514;48.606;9.222;2024-01-30T03:10:12;8.30;;;6.80;;
12892;SDS011;6514;48.606;9.222;2024-01-30T03:12:39;8.17;;;6.53;;
12892;SDS011;6514;48.606;9.222;2024-01-30T03:15:08;8.97;;;7.27;;
12892;SDS011;6514;48.606;9.222;2024-01-30T03:17:35;9.40;;;7.33;;
12892;SDS011;6514;48.606;9.222;2024-01-30T03:20:03;10.33;;;7.63;;
12892;SDS011;6514;48.606;9.222;2024-01-30T03:22:31;9.53;;;7.30;;
12892;SDS011;6514;48.606;9.222;2024-01-30T03:24:58;11.47;;;8.20;;
12892;SDS011;6514;48.606;9.222;2024-01-30T03:27:25;10.23;;;7.37;;
12892;SDS011;6514;48.606;9.222;2024-01-30T03:29:54;11.63;;;7.80;;
12892;SDS011;6514;48.606;9.222;2024-01-30T03:32:22;11.10;;;8.10;;
12892;SDS011;6514;48.606;9.222;2024-01-30T03:34:49;10.73;;;7.50;;
12892;SDS011;6514;48.606;9.222;2024-01-30T03:37:16;11.70;;;7.90;;
12892;SDS011;6514;48.606;9.222;2024-01-30T03:39:43;11.50;;;8.90;;
12892;SDS011;6514;48.606;9.222;2024-01-30T03:42:10;12.87;;;8.97;;
12892;SDS011;6514;48.606;9.222;2024-01-30T03:44:37;11.00;;;8.03;;
12892;SDS011;6514;48.606;9.222;2024-01-30T03:47:05;11.07;;;8.13;;
12892;SDS011;6514;48.606;9.222;2024-01-30T03:49:33;11.33;;;7.80;;
12892;SDS011;6514;48.606;9.222;2024-01-30T03:52:00;11.20;;;7.53;;
12892;SDS011;6514;48.606;9.222;2024-01-30T03:54:27;9.23;;;7.10;;
12892;SDS011;6514;48.606;9.222;2024-01-30T03:56:55;8.93;;;7.13;;
12892;SDS011;6514;48.606;9.222;2024-01-30T03:59:22;11.63;;;7.93;;
12892;SDS011;6514;48.606;9.222;2024-01-30T04:01:49;10.20;;;7.20;;
12892;SDS011;6514;48.606;9.222;2024-01-30T04:04:16;10.47;;;7.97;;
12892;SDS011;6514;48.606;9.222;2024-01-30T04:06:45;10.57;;;7.20;;
12892;SDS011;6514;48.606;9.222;2024-01-30T04:09:12;8.33;;;7.10;;
12892;SDS011;6514;48.606;9.222;2024-01-30T04:11:39;10.17;;;7.60;;
12892;SDS011;6514;48.606;9.222;2024-01-30T04:14:07;10.97;;;7.50;;
12892;SDS011;6514;48.606;9.222;2024-01-30T04:16:34;13.57;;;7.97;;
12892;SDS011;6514;48.606;9.222;2024-01-30T04:19:02;11.87;;;8.10;;
12892;SDS011;6514;48.606;9.222;2024-01-30T04:21:29;15.10;;;8.77;;
12892;SDS011;6514;48.606;9.222;2024-01-30T04:23:58;13.37;;;9.37;;
12892;SDS011;6514;48.606;9.222;2024-01-30T04:26:25;16.53;;;11.00;;
12892;SDS011;6514;48.606;9.222;2024-01-30T04:28:52;19.27;;;12.10;;
12892;SDS011;6514;48.606;9.222;2024-01-30T04:31:19;17.77;;;11.47;;
12892;SDS011;6514;48.606;9.222;2024-01-30T04:33:47;19.00;;;12.10;;
12892;SDS011;6514;48.606;9.222;2024-01-30T04:36:14;14.73;;;10.63;;
12892;SDS011;6514;48.606;9.222;2024-01-30T04:38:41;16.70;;;10.87;;
12892;SDS011;6514;48.606;9.222;2024-01-30T04:41:09;11.10;;;8.50;;
12892;SDS011;6514;48.606;9.222;2024-01-30T04:43:37;12.23;;;8.33;;
12892;SDS011;6514;48.606;9.222;2024-01-30T04:46:04;13.70;;;9.47;;
12892;SDS011;6514;48.606;9.222;2024-01-30T04:48:31;17.27;;;11.83;;
12892;SDS011;6514;48.606;9.222;2024-01-30T04:50:58;15.77;;;10.70;;
12892;SDS011;6514;48.606;9.222;2024-01-30T04:53:28;14.10;;;9.10;;
12892;SDS011;6514;48.606;9.222;2024-01-30T04:55:55;15.33;;;9.73;;
12892;SDS011;6514;48.606;9.222;2024-01-30T04:58:23;12.90;;;8.80;;
12892;SDS011;6514;48.606;9.222;2024-01-30T05:00:50;12.73;;;8.60;;
12892;SDS011;6514;48.606;9.222;2024-01-30T05:03:18;11.70;;;8.17;;
12892;SDS011;6514;48.606;9.222;2024-01-30T05:05:45;14.60;;;8.83;;
12892;SDS011;6514;48.606;9.222;2024-01-30T05:08:12;11.07;;;8.13;;
12892;SDS011;6514;48.606;9.222;2024-01-30T05:10:39;12.77;;;7.63;;
12892;SDS011;6514;48.606;9.222;2024-01-30T05:13:06;11.70;;;8.03;;
12892;SDS011;6514;48.606;9.222;2024-01-30T05:15:35;12.23;;;7.80;;
12892;SDS011;6514;48.606;9.222;2024-01-30T05:18:02;10.10;;;7.30;;
12892;SDS011;6514;48.606;9.222;2024-01-30T05:20:29;10.87;;;7.90;;
12892;SDS011;6514;48.606;9.222;2024-01-30T05:22:56;9.30;;;7.53;;
12892;SDS011;6514;48.606;9.222;2024-01-30T05:25:23;11.00;;;7.43;;
12892;SDS011;6514;48.606;9.222;2024-01-30T05:27:50;11.07;;;7.97;;
12892;SDS011;6514;48.606;9.222;2024-01-30T05:30:18;10.73;;;8.17;;
12892;SDS011;6514;48.606;9.222;2024-01-30T05:32:46;11.37;;;8.23;;
12892;SDS011;6514;48.606;9.222;2024-01-30T05:35:14;13.13;;;8.77;;
12892;SDS011;6514;48.606;9.222;2024-01-30T05:37:41;11.50;;;8.60;;
12892;SDS011;6514;48.606;9.222;2024-01-30T05:40:09;11.43;;;7.90;;
12892;SDS011;6514;48.606;9.222;2024-01-30T05:42:36;10.60;;;7.43;;
12892;SDS011;6514;48.606;9.222;2024-01-30T05:45:04;10.80;;;7.97;;
12892;SDS011;6514;48.606;9.222;2024-01-30T05:47:31;10.83;;;8.40;;
12892;SDS011;6514;48.606;9.222;2024-01-30T05:50:00;12.33;;;8.13;;
12892;SDS011;6514;48.606;9.222;2024-01-30T05:52:27;13.20;;;8.47;;
12892;SDS011;6514;48.606;9.222;2024-01-30T05:54:54;10.90;;;8.17;;
12892;SDS011;6514;48.606;9.222;2024-01-30T05:57:21;12.13;;;8.77;;
12892;SDS011;6514;48.606;9.222;2024-01-30T05:59:48;11.53;;;8.47;;
12892;SDS011;6514;48.606;9.222;2024-01-30T06:02:17;11.60;;;8.20;;
12892;SDS011;6514;48.606;9.222;2024-01-30T06:04:44;13.90;;;8.77;;
12892;SDS011;6514;48.606;9.222;2024-01-30T06:07:12;14.40;;;8.40;;
12892;SDS011;6514;48.606;9.222;2024-01-30T06:09:39;12.73;;;10.00;;
12892;SDS011;6514;48.606;9.222;2024-01-30T06:12:07;14.73;;;9.03;;
12892;SDS011;6514;48.606;9.222;2024-01-30T06:14:36;12.77;;;9.17;;
12892;SDS011;6514;48.606;9.222;2024-01-30T06:17:03;13.47;;;8.47;;
12892;SDS011;6514;48.606;9.222;2024-01-30T06:19:31;11.67;;;8.33;;
12892;SDS011;6514;48.606;9.222;2024-01-30T06:21:58;10.67;;;8.40;;
12892;SDS011;6514;48.606;9.222;2024-01-30T06:24:26;11.87;;;8.90;;
12892;SDS011;6514;48.606;9.222;2024-01-30T06:26:53;10.23;;;7.73;;
12892;SDS011;6514;48.606;9.222;2024-01-30T06:29:21;11.80;;;8.13;;
12892;SDS011;6514;48.606;9.222;2024-01-30T06:31:49;12.73;;;7.90;;
12892;SDS011;6514;48.606;9.222;2024-01-30T06:34:18;10.37;;;7.50;;
12892;SDS011;6514;48.606;9.222;2024-01-30T06:36:45;11.50;;;8.90;;
12892;SDS011;6514;48.606;9.222;2024-01-30T06:39:12;12.10;;;8.47;;
12892;SDS011;6514;48.606;9.222;2024-01-30T06:41:40;10.13;;;8.10;;
12892;SDS011;6514;48.606;9.222;2024-01-30T06:44:07;11.80;;;8.80;;
12892;SDS011;6514;48.606;9.222;2024-01-30T06:46:35;13.53;;;8.63;;
12892;SDS011;6514;48.606;9.222;2024-01-30T06:49:03;15.40;;;8.83;;
12892;SDS011;6514;48.606;9.222;2024-01-30T06:51:30;14.73;;;9.40;;
12892;SDS011;6514;48.606;9.222;2024-01-30T06:53:57;14.10;;;9.00;;
12892;SDS011;6514;48.606;9.222;2024-01-30T06:56:25;11.83;;;8.23;;
12892;SDS011;6514;48.606;9.222;2024-01-30T06:58:53;13.30;;;8.70;;
12892;SDS011;6514;48.606;9.222;2024-01-30T07:01:20;12.13;;;8.73;;
12892;SDS011;6514;48.606;9.222;2024-01-30T07:03:47;14.60;;;9.83;;
12892;SDS011;6514;48.606;9.222;2024-01-30T07:06:15;16.40;;;10.63;;
12892;SDS011;6514;48.606;9.222;2024-01-30T07:08:42;20.13;;;13.00;;
12892;SDS011;6514;48.606;9.222;2024-01-30T07:11:09;16.67;;;10.00;;
12892;SDS011;6514;48.606;9.222;2024-01-30T07:13:37;11.03;;;8.50;;
12892;SDS011;6514;48.606;9.222;2024-01-30T07:16:06;12.47;;;8.60;;
12892;SDS011;6514;48.606;9.222;2024-01-30T07:18:33;14.03;;;9.13;;
12892;SDS011;6514;48.606;9.222;2024-01-30T07:21:00;17.23;;;10.53;;
12892;SDS011;6514;48.606;9.222;2024-01-30T07:23:27;20.07;;;12.70;;
12892;SDS011;6514;48.606;9.222;2024-01-30T07:25:55;17.20;;;11.17;;
12892;SDS011;6514;48.606;9.222;2024-01-30T07:28:22;13.13;;;8.80;;
12892;SDS011;6514;48.606;9.222;2024-01-30T07:30:49;14.60;;;9.07;;
12892;SDS011;6514;48.606;9.222;2024-01-30T07:33:18;12.17;;;8.47;;
12892;SDS011;6514;48.606;9.222;2024-01-30T07:35:45;12.97;;;8.07;;
12892;SDS011;6514;48.606;9.222;2024-01-30T07:38:12;11.57;;;7.93;;
12892;SDS011;6514;48.606;9.222;2024-01-30T07:40:39;12.03;;;8.17;;
12892;SDS011;6514;48.606;9.222;2024-01-30T07:43:07;12.30;;;8.13;;
12892;SDS011;6514;48.606;9.222;2024-01-30T07:45:34;15.90;;;9.70;;
12892;SDS011;6514;48.606;9.222;2024-01-30T07:48:02;13.87;;;9.47;;
12892;SDS011;6514;48.606;9.222;2024-01-30T07:50:31;21.37;;;12.37;;
12892;SDS011;6514;48.606;9.222;2024-01-30T07:52:59;30.73;;;15.63;;
12892;SDS011;6514;48.606;9.222;2024-01-30T07:55:26;18.60;;;11.93;;
12892;SDS011;6514;48.606;9.222;2024-01-30T07:57:54;25.07;;;12.90;;
12892;SDS011;6514;48.606;9.222;2024-01-30T08:00:21;22.00;;;13.83;;
12892;SDS011;6514;48.606;9.222;2024-01-30T08:02:48;17.20;;;10.73;;
12892;SDS011;6514;48.606;9.222;2024-01-30T08:05:15;21.73;;;12.20;;
12892;SDS011;6514;48.606;9.222;2024-01-30T08:07:44;19.43;;;11.93;;
12892;SDS011;6514;48.606;9.222;2024-01-30T08:10:11;14.97;;;9.90;;
12892;SDS011;6514;48.606;9.222;2024-01-30T08:12:39;18.27;;;9.40;;
12892;SDS011;6514;48.606;9.222;2024-01-30T08:15:06;14.87;;;10.40;;
12892;SDS011;6514;48.606;9.222;2024-01-30T08:17:33;11.77;;;7.03;;
12892;SDS011;6514;48.606;9.222;2024-01-30T08:20:01;9.33;;;6.50;;
12892;SDS011;6514;48.606;9.222;2024-01-30T08:22:29;9.07;;;5.67;;
12892;SDS011;6514;48.606;9.222;2024-01-30T08:24:58;9.27;;;6.23;;
12892;SDS011;6514;48.606;9.222;2024-01-30T08:27:25;12.10;;;5.93;;
12892;SDS011;6514;48.606;9.222;2024-01-30T08:29:52;8.10;;;5.50;;
12892;SDS011;6514;48.606;9.222;2024-01-30T08:32:20;8.13;;;6.20;;
12892;SDS011;6514;48.606;9.222;2024-01-30T08:34:47;10.00;;;6.50;;
12892;SDS011;6514;48.606;9.222;2024-01-30T08:37:14;8.17;;;5.90;;
12892;SDS011;6514;48.606;9.222;2024-01-30T08:39:42;7.53;;;5.83;;
12892;SDS011;6514;48.606;9.222;2024-01-30T08:42:10;9.90;;;5.70;;
12892;SDS011;6514;48.606;9.222;2024-01-30T08:44:37;8.80;;;5.60;;
12892;SDS011;6514;48.606;9.222;2024-01-30T08:47:04;8.03;;;5.57;;
12892;SDS011;6514;48.606;9.222;2024-01-30T08:49:32;8.23;;;6.23;;
12892;SDS011;6514;48.606;9.222;2024-01-30T08:51:59;8.10;;;5.90;;
12892;SDS011;6514;48.606;9.222;2024-01-30T08:54:26;6.87;;;5.50;;
12892;SDS011;6514;48.606;9.222;2024-01-30T08:56:53;7.07;;;5.33;;
12892;SDS011;6514;48.606;9.222;2024-01-30T08:59:22;8.73;;;5.30;;
12892;SDS011;6514;48.606;9.222;2024-01-30T09:01:50;5.97;;;4.70;;
12892;SDS011;6514;48.606;9.222;2024-01-30T09:04:20;6.73;;;4.43;;
12892;SDS011;6514;48.606;9.222;2024-01-30T09:06:47;6.07;;;5.00;;
12892;SDS011;6514;48.606;9.222;2024-01-30T09:09:15;9.23;;;5.00;;
12892;SDS011;6514;48.606;9.222;2024-01-30T09:11:42;7.10;;;4.97;;
12892;SDS011;6514;48.606;9.222;2024-01-30T09:14:09;6.90;;;4.37;;
12892;SDS011;6514;48.606;9.222;2024-01-30T09:16:38;6.50;;;5.07;;
12892;SDS011;6514;48.606;9.222;2024-01-30T09:19:05;7.03;;;4.90;;
12892;SDS011;6514;48.606;9.222;2024-01-30T09:21:32;7.23;;;4.80;;
12892;SDS011;6514;48.606;9.222;2024-01-30T09:24:01;6.57;;;4.80;;
12892;SDS011;6514;48.606;9.222;2024-01-30T09:26:29;7.33;;;5.60;;
12892;SDS011;6514;48.606;9.222;2024-01-30T09:28:56;6.57;;;4.53;;
12892;SDS011;6514;48.606;9.222;2024-01-30T09:31:23;5.13;;;4.63;;
12892;SDS011;6514;48.606;9.222;2024-01-30T09:33:52;6.13;;;4.50;;
12892;SDS011;6514;48.606;9.222;2024-01-30T09:36:20;7.10;;;5.17;;
12892;SDS011;6514;48.606;9.222;2024-01-30T09:38:47;7.67;;;5.07;;
12892;SDS011;6514;48.606;9.222;2024-01-30T09:41:14;5.80;;;4.97;;
12892;SDS011;6514;48.606;9.222;2024-01-30T09:43:42;5.70;;;5.10;;
12892;SDS011;6514;48.606;9.222;2024-01-30T09:46:14;6.03;;;4.80;;
12892;SDS011;6514;48.606;9.222;2024-01-30T09:48:41;5.50;;;4.27;;
12892;SDS011;6514;48.606;9.222;2024-01-30T09:51:10;5.30;;;4.40;;
12892;SDS011;6514;48.606;9.222;2024-01-30T09:53:37;6.77;;;5.10;;
12892;SDS011;6514;48.606;9.222;2024-01-30T09:56:05;6.70;;;4.63;;
12892;SDS011;6514;48.606;9.222;2024-01-30T09:58:33;5.93;;;4.80;;
12892;SDS011;6514;48.606;9.222;2024-01-30T10:01:00;7.47;;;4.53;;
12892;SDS011;6514;48.606;9.222;2024-01-30T10:03:27;5.57;;;4.10;;
12892;SDS011;6514;48.606;9.222;2024-01-30T10:06:07;6.13;;;3.50;;
12892;SDS011;6514;48.606;9.222;2024-01-30T10:08:36;5.77;;;3.80;;
12892;SDS011;6514;48.606;9.222;2024-01-30T10:11:05;4.83;;;3.90;;
12892;SDS011;6514;48.606;9.222;2024-01-30T10:13:32;5.37;;;3.70;;
12892;SDS011;6514;48.606;9.222;2024-01-30T10:15:59;6.07;;;4.00;;
12892;SDS011;6514;48.606;9.222;2024-01-30T10:18:28;6.67;;;4.80;;
12892;SDS011;6514;48.606;9.222;2024-01-30T10:20:55;7.20;;;4.50;;
12892;SDS011;6514;48.606;9.222;2024-01-30T10:23:22;6.47;;;4.03;;
12892;SDS011;6514;48.606;9.222;2024-01-30T10:25:51;5.53;;;4.37;;
12892;SDS011;6514;48.606;9.222;2024-01-30T10:28:19;4.97;;;3.90;;
12892;SDS011;6514;48.606;9.222;2024-01-30T10:30:46;5.77;;;4.23;;
12892;SDS011;6514;48.606;9.222;2024-01-30T10:33:13;5.83;;;4.50;;
12892;SDS011;6514;48.606;9.222;2024-01-30T10:35:41;6.97;;;4.23;;
12892;SDS011;6514;48.606;9.222;2024-01-30T10:38:08;5.33;;;4.20;;
12892;SDS011;6514;48.606;9.222;2024-01-30T10:40:37;8.40;;;5.50;;
12892;SDS011;6514;48.606;9.222;2024-01-30T10:43:06;8.30;;;6.10;;
12892;SDS011;6514;48.606;9.222;2024-01-30T10:45:36;6.80;;;4.63;;
12892;SDS011;6514;48.606;9.222;2024-01-30T10:48:06;5.97;;;4.30;;
12892;SDS011;6514;48.606;9.222;2024-01-30T10:50:35;5.87;;;4.63;;
12892;SDS011;6514;48.606;9.222;2024-01-30T10:53:02;7.20;;;4.73;;
12892;SDS011;6514;48.606;9.222;2024-01-30T10:55:32;7.63;;;5.07;;
12892;SDS011;6514;48.606;9.222;2024-01-30T10:58:00;6.33;;;5.30;;
12892;SDS011;6514;48.606;9.222;2024-01-30T11:00:29;6.67;;;5.63;;
12892;SDS011;6514;48.606;9.222;2024-01-30T11:02:58;6.10;;;5.00;;
12892;SDS011;6514;48.606;9.222;2024-01-30T11:05:25;6.00;;;5.37;;
12892;SDS011;6514;48.606;9.222;2024-01-30T11:07:52;6.07;;;4.90;;
12892;SDS011;6514;48.606;9.222;2024-01-30T11:10:20;6.33;;;4.60;;
12892;SDS011;6514;48.606;9.222;2024-01-30T11:12:47;6.60;;;4.97;;
12892;SDS011;6514;48.606;9.222;2024-01-30T11:15:16;7.17;;;4.63;;
12892;SDS011;6514;48.606;9.222;2024-01-30T11:17:51;5.57;;;4.70;;
12892;SDS011;6514;48.606;9.222;2024-01-30T11:20:19;6.97;;;4.50;;
12892;SDS011;6514;48.606;9.222;2024-01-30T11:22:47;7.90;;;5.60;;
12892;SDS011;6514;48.606;9.222;2024-01-30T11:25:16;8.60;;;7.70;;
12892;SDS011;6514;48.606;9.222;2024-01-30T11:27:44;6.93;;;6.23;;
12892;SDS011;6514;48.606;9.222;2024-01-30T11:30:11;7.00;;;5.70;;
12892;SDS011;6514;48.606;9.222;2024-01-30T11:32:58;9.07;;;6.17;;
12892;SDS011;6514;48.606;9.222;2024-01-30T11:35:26;7.93;;;6.03;;
12892;SDS011;6514;48.606;9.222;2024-01-30T11:37:53;10.90;;;6.13;;
12892;SDS011;6514;48.606;9.222;2024-01-30T11:40:21;8.33;;;5.27;;
12892;SDS011;6514;48.606;9.222;2024-01-30T11:42:48;6.87;;;5.47;;
12892;SDS011;6514;48.606;9.222;2024-01-30T11:45:17;8.13;;;5.53;;
12892;SDS011;6514;48.606;9.222;2024-01-30T11:47:44;7.73;;;5.13;;
12892;SDS011;6514;48.606;9.222;2024-01-30T11:50:12;6.97;;;5.57;;
12892;SDS011;6514;48.606;9.222;2024-01-30T11:52:40;8.97;;;5.77;;
12892;SDS011;6514;48.606;9.222;2024-01-30T11:55:08;9.47;;;5.70;;
12892;SDS011;6514;48.606;9.222;2024-01-30T11:57:35;7.10;;;5.17;;
12892;SDS011;6514;48.606;9.222;2024-01-30T12:00:03;6.83;;;5.30;;
12892;SDS011;6514;48.606;9.222;2024-01-30T12:02:35;7.73;;;5.20;;
12892;SDS011;6514;48.606;9.222;2024-01-30T12:05:03;8.60;;;5.80;;
12892;SDS011;6514;48.606;9.222;2024-01-30T12:07:32;9.93;;;5.60;;
12892;SDS011;6514;48.606;9.222;2024-01-30T12:09:59;6.67;;;5.90;;
12892;SDS011;6514;48.606;9.222;2024-01-30T12:12:27;6.97;;;5.50;;
12892;SDS011;6514;48.606;9.222;2024-01-30T12:14:55;8.00;;;5.73;;
12892;SDS011;6514;48.606;9.222;2024-01-30T12:17:27;7.10;;;5.83;;
12892;SDS011;6514;48.606;9.222;2024-01-30T12:20:02;6.97;;;5.83;;
12892;SDS011;6514;48.606;9.222;2024-01-30T12:22:29;6.50;;;4.73;;
12892;SDS011;6514;48.606;9.222;2024-01-30T12:24:58;6.87;;;5.23;;
12892;SDS011;6514;48.606;9.222;2024-01-30T12:27:25;8.93;;;5.90;;
12892;SDS011;6514;48.606;9.222;2024-01-30T12:29:55;8.03;;;5.37;;
12892;SDS011;6514;48.606;9.222;2024-01-30T12:32:23;7.60;;;5.73;;
12892;SDS011;6514;48.606;9.222;2024-01-30T12:34:50;7.30;;;5.63;;
12892;SDS011;6514;48.606;9.222;2024-01-30T12:37:17;9.03;;;5.93;;
12892;SDS011;6514;48.606;9.222;2024-01-30T12:39:47;9.43;;;6.37;;
12892;SDS011;6514;48.606;9.222;2024-01-30T12:42:16;8.83;;;6.30;;
12892;SDS011;6514;48.606;9.222;2024-01-30T12:44:43;8.30;;;6.20;;
12892;SDS011;6514;48.606;9.222;2024-01-30T12:47:10;8.87;;;5.87;;
12892;SDS011;6514;48.606;9.222;2024-01-30T12:49:37;7.40;;;5.63;;
12892;SDS011;6514;48.606;9.222;2024-01-30T12:52:04;8.37;;;5.80;;
12892;SDS011;6514;48.606;9.222;2024-01-30T12:54:32;8.07;;;4.97;;
12892;SDS011;6514;48.606;9.222;2024-01-30T12:56:59;7.20;;;5.00;;
12892;SDS011;6514;48.606;9.222;2024-01-30T12:59:26;7.43;;;4.73;;
12892;SDS011;6514;48.606;9.222;2024-01-30T13:01:53;7.60;;;4.80;;
12892;SDS011;6514;48.606;9.222;2024-01-30T13:04:20;5.00;;;4.20;;
12892;SDS011;6514;48.606;9.222;2024-01-30T13:06:48;4.33;;;3.57;;
12892;SDS011;6514;48.606;9.222;2024-01-30T13:09:15;4.63;;;4.13;;
12892;SDS011;6514;48.606;9.222;2024-01-30T13:11:42;7.73;;;5.17;;
12892;SDS011;6514;48.606;9.222;2024-01-30T13:14:09;5.53;;;3.90;;
12892;SDS011;6514;48.606;9.222;2024-01-30T13:16:38;6.93;;;4.70;;
12892;SDS011;6514;48.606;9.222;2024-01-30T13:19:05;5.23;;;3.67;;
12892;SDS011;6514;48.606;9.222;2024-01-30T13:21:32;4.13;;;3.67;;
12892;SDS011;6514;48.606;9.222;2024-01-30T13:23:59;4.97;;;3.90;;
12892;SDS011;6514;48.606;9.222;2024-01-30T13:26:26;5.37;;;4.03;;
12892;SDS011;6514;48.606;9.222;2024-01-30T13:28:53;4.47;;;3.80;;
12892;SDS011;6514;48.606;9.222;2024-01-30T13:31:21;5.63;;;4.03;;
12892;SDS011;6514;48.606;9.222;2024-01-30T13:33:49;3.87;;;3.40;;
12892;SDS011;6514;48.606;9.222;2024-01-30T13:36:16;4.60;;;3.40;;
12892;SDS011;6514;48.606;9.222;2024-01-30T13:38:44;4.23;;;3.40;;
12892;SDS011;6514;48.606;9.222;2024-01-30T13:41:11;5.90;;;3.70;;
12892;SDS011;6514;48.606;9.222;2024-01-30T13:43:38;5.10;;;4.03;;
12892;SDS011;6514;48.606;9.222;2024-01-30T13:46:05;4.97;;;3.70;;
12892;SDS011;6514;48.606;9.222;2024-01-30T13:48:32;3.43;;;2.60;;
12892;SDS011;6514;48.606;9.222;2024-01-30T13:51:01;2.90;;;1.67;;
12892;SDS011;6514;48.606;9.222;2024-01-30T13:53:28;2.73;;;1.43;;
12892;SDS011;6514;48.606;9.222;2024-01-30T13:55:55;4.27;;;2.27;;
12892;SDS011;6514;48.606;9.222;2024-01-30T13:58:22;4.03;;;2.97;;
12892;SDS011;6514;48.606;9.222;2024-01-30T14:00:50;5.03;;;3.50;;
12892;SDS011;6514;48.606;9.222;2024-01-30T14:03:17;6.00;;;3.60;;
12892;SDS011;6514;48.606;9.222;2024-01-30T14:05:44;4.83;;;3.50;;
12892;SDS011;6514;48.606;9.222;2024-01-30T14:08:12;4.83;;;3.50;;
12892;SDS011;6514;48.606;9.222;2024-01-30T14:10:39;4.23;;;3.30;;
12892;SDS011;6514;48.606;9.222;2024-01-30T14:13:07;5.97;;;4.17;;
12892;SDS011;6514;48.606;9.222;2024-01-30T14:15:34;7.60;;;4.43;;
12892;SDS011;6514;48.606;9.222;2024-01-30T14:18:01;6.47;;;4.30;;
12892;SDS011;6514;48.606;9.222;2024-01-30T14:20:28;6.03;;;4.17;;
12892;SDS011;6514;48.606;9.222;2024-01-30T14:22:56;6.13;;;4.57;;
12892;SDS011;6514;48.606;9.222;2024-01-30T14:25:25;6.80;;;4.70;;
12892;SDS011;6514;48.606;9.222;2024-01-30T14:27:52;5.90;;;4.33;;
12892;SDS011;6514;48.606;9.222;2024-01-30T14:30:19;7.40;;;4.60;;
12892;SDS011;6514;48.606;9.222;2024-01-30T14:32:46;6.20;;;4.10;;
12892;SDS011;6514;48.606;9.222;2024-01-30T14:35:14;5.47;;;4.10;;
12892;SDS011;6514;48.606;9.222;2024-01-30T14:37:41;6.60;;;4.20;;
12892;SDS011;6514;48.606;9.222;2024-01-30T14:40:08;5.50;;;3.93;;
12892;SDS011;6514;48.606;9.222;2024-01-30T14:42:37;6.30;;;3.67;;
12892;SDS011;6514;48.606;9.222;2024-01-30T14:45:05;6.97;;;4.50;;
12892;SDS011;6514;48.606;9.222;2024-01-30T14:47:32;9.20;;;5.00;;
12892;SDS011;6514;48.606;9.222;2024-01-30T14:50:00;10.97;;;5.40;;
12892;SDS011;6514;48.606;9.222;2024-01-30T14:52:29;5.70;;;4.50;;
12892;SDS011;6514;48.606;9.222;2024-01-30T14:54:56;5.77;;;3.90;;
12892;SDS011;6514;48.606;9.222;2024-01-30T14:57:23;4.40;;;3.30;;